This is the latest recevied weather packets stored in our database for station/object YO8PIC-13. If no packets are shown the sender has not sent any weather packets the latest 10 day(s).
| Time | Temp. | Humidity | Pressure | Rain* | Wind** | Luminosity | Snow |
|---|---|---|---|---|---|---|---|
| 1788528051 | 44.44° C | 9% | 1016.2 hPa | - | - | - | - |
| 1788527451 | 41.11° C | 12% | 1016.4 hPa | - | - | - | - |
| 1788526851 | 38.89° C | 13% | 1016.7 hPa | - | - | - | - |
| 1788526251 | 44.44° C | 8% | 1016.5 hPa | - | - | - | - |
| 1788525652 | 43.89° C | 10% | 1016.6 hPa | - | - | - | - |
| 1788525051 | 38.33° C | 14% | 1016.8 hPa | - | - | - | - |
| 1788524452 | 42.78° C | 11% | 1016.8 hPa | - | - | - | - |
| 1788523851 | 39.44° C | 13% | 1016.9 hPa | - | - | - | - |
| 1788523252 | 43.33° C | 10% | 1017 hPa | - | - | - | - |
| 1788522651 | 43.33° C | 11% | 1017.1 hPa | - | - | - | - |
| 1788522051 | 43.89° C | 11% | 1017.2 hPa | - | - | - | - |
| 1788521451 | 41.67° C | 11% | 1017.3 hPa | - | - | - | - |
| 1788520851 | 41.11° C | 12% | 1017.5 hPa | - | - | - | - |
| 1788520251 | 31.11° C | 25% | 1017.8 hPa | - | - | - | - |
| 1788519651 | 41.67° C | 13% | 1017.6 hPa | - | - | - | - |
| 1788519052 | 42.22° C | 12% | 1017.8 hPa | - | - | - | - |
| 1788518451 | 38.33° C | 17% | 1017.9 hPa | - | - | - | - |
| 1788517851 | 34.44° C | 21% | 1018.1 hPa | - | - | - | - |
| 1788517252 | 41.11° C | 14% | 1018 hPa | - | - | - | - |
| 1788516651 | 43.33° C | 14% | 1018.2 hPa | - | - | - | - |
| 1788516052 | 37.78° C | 17% | 1018.5 hPa | - | - | - | - |
| 1788515452 | 38.33° C | 17% | 1018.7 hPa | - | - | - | - |
| 1788514851 | 37.78° C | 17% | 1018.8 hPa | - | - | - | - |
| 1788514252 | 31.67° C | 24% | 1018.9 hPa | - | - | - | - |
| 1788513652 | 39.44° C | 16% | 1018.8 hPa | - | - | - | - |
* Rain since midnight (hover to see other rain measurements)
** Current wind speed in m/s (hover to see current wind gust speed)